createdAt,value
2018-06-09T00:01:03.311Z,50.64
2018-06-09T00:03:32.079Z,49.99
2018-06-09T00:06:00.739Z,50.32
2018-06-09T00:08:29.387Z,50.42
2018-06-09T00:10:58.015Z,50.31
2018-06-09T00:13:32.635Z,50.28
2018-06-09T00:16:01.395Z,50.60
2018-06-09T00:18:30.038Z,51.20
2018-06-09T00:20:58.744Z,51.53
2018-06-09T00:23:27.368Z,51.27
2018-06-09T00:25:56.061Z,51.22
2018-06-09T00:28:24.711Z,51.02
2018-06-09T00:30:53.386Z,50.75
2018-06-09T00:33:22.106Z,51.47
2018-06-09T00:35:50.847Z,50.44
2018-06-09T00:38:19.473Z,50.80
2018-06-09T00:40:48.203Z,50.26
2018-06-09T00:43:16.845Z,50.86
2018-06-09T00:45:45.598Z,50.32
2018-06-09T00:48:14.184Z,49.64
2018-06-09T00:50:42.854Z,50.22
2018-06-09T00:53:11.568Z,50.39
2018-06-09T00:55:40.271Z,50.19
2018-06-09T00:58:08.942Z,50.14
2018-06-09T01:00:37.588Z,50.74
2018-06-09T01:03:06.223Z,50.94
2018-06-09T01:05:34.916Z,50.89
2018-06-09T01:08:03.560Z,51.30
2018-06-09T01:10:32.198Z,51.03
2018-06-09T01:13:00.840Z,50.14
2018-06-09T01:15:29.500Z,50.79
2018-06-09T01:17:58.181Z,51.14
2018-06-09T01:23:00.917Z,51.49
2018-06-09T01:25:29.570Z,50.22
2018-06-09T01:27:58.227Z,50.40
2018-06-09T01:30:26.917Z,50.42
2018-06-09T01:32:55.610Z,50.74
2018-06-09T01:35:24.264Z,51.23
2018-06-09T01:37:52.910Z,51.41
2018-06-09T01:40:21.691Z,52.61
2018-06-09T01:42:50.354Z,53.04
2018-06-09T01:45:19.002Z,53.26
2018-06-09T01:47:47.893Z,53.80
2018-06-09T01:50:16.549Z,54.37
2018-06-09T01:52:45.323Z,54.17
2018-06-09T01:55:13.957Z,54.51
2018-06-09T01:57:42.620Z,54.25
2018-06-09T02:00:11.250Z,54.96
2018-06-09T02:02:39.938Z,54.67
2018-06-09T02:05:08.657Z,54.50
2018-06-09T02:07:38.134Z,54.51
2018-06-09T02:10:06.838Z,54.04
2018-06-09T02:12:35.443Z,54.62
2018-06-09T02:15:04.163Z,54.63
2018-06-09T02:17:32.889Z,54.25
2018-06-09T02:20:01.692Z,54.38
2018-06-09T02:22:30.399Z,54.38
2018-06-09T02:24:59.582Z,54.83
2018-06-09T02:27:28.578Z,55.08
2018-06-09T02:29:57.211Z,55.51
2018-06-09T02:32:25.886Z,55.99
2018-06-09T02:34:54.590Z,56.00
2018-06-09T02:37:23.271Z,55.74
2018-06-09T02:39:51.870Z,55.93
2018-06-09T02:42:20.572Z,56.81
2018-06-09T02:44:49.223Z,56.65
2018-06-09T02:47:17.957Z,56.57
2018-06-09T02:49:46.627Z,56.92
2018-06-09T02:52:15.327Z,58.01
2018-06-09T02:54:48.244Z,59.20
2018-06-09T02:57:17.117Z,59.43
2018-06-09T02:59:45.804Z,59.47
2018-06-09T03:02:14.438Z,59.72
2018-06-09T03:04:43.157Z,59.19
2018-06-09T03:07:11.857Z,59.58
2018-06-09T03:09:40.499Z,59.51
2018-06-09T03:12:09.145Z,59.36
2018-06-09T03:14:37.795Z,59.82
2018-06-09T03:17:06.447Z,60.30
2018-06-09T03:19:35.109Z,60.91
2018-06-09T03:22:03.760Z,60.58
2018-06-09T03:24:32.456Z,60.81
2018-06-09T03:27:01.066Z,60.75
2018-06-09T03:29:29.728Z,61.68
2018-06-09T03:31:58.378Z,61.94
2018-06-09T03:34:27.054Z,62.18
2018-06-09T03:36:55.725Z,62.92
2018-06-09T03:39:24.415Z,63.44
2018-06-09T03:41:52.986Z,62.94
2018-06-09T03:44:21.614Z,63.77
2018-06-09T03:46:50.279Z,63.81
2018-06-09T03:49:18.943Z,63.74
2018-06-09T03:51:47.651Z,63.55
2018-06-09T03:54:16.321Z,63.11
2018-06-09T03:56:45.099Z,62.65
2018-06-09T03:59:13.752Z,63.22
2018-06-09T04:01:42.473Z,63.45
2018-06-09T04:04:11.110Z,62.88
2018-06-09T04:06:39.786Z,62.90
2018-06-09T04:09:08.716Z,62.74
2018-06-09T04:11:37.415Z,62.19
2018-06-09T04:14:06.083Z,61.88
2018-06-09T04:16:34.719Z,61.60
2018-06-09T04:19:03.417Z,62.16
2018-06-09T04:21:32.063Z,61.48
2018-06-09T04:24:00.760Z,61.28
2018-06-09T04:26:29.467Z,61.42
2018-06-09T04:28:58.127Z,60.67
2018-06-09T04:31:26.778Z,61.14
2018-06-09T04:33:55.483Z,61.59
2018-06-09T04:36:24.163Z,61.26
2018-06-09T04:38:52.838Z,61.25
2018-06-09T04:41:21.530Z,61.20
2018-06-09T04:43:50.191Z,61.20
2018-06-09T04:46:18.879Z,61.10
2018-06-09T04:48:47.550Z,61.10
2018-06-09T04:51:16.289Z,61.42
2018-06-09T04:53:44.942Z,61.89
2018-06-09T04:56:13.680Z,61.41
2018-06-09T04:58:42.480Z,60.84
2018-06-09T05:01:11.162Z,61.39
2018-06-09T05:03:40.686Z,61.41
2018-06-09T05:06:09.388Z,60.99
2018-06-09T05:08:38.598Z,60.90
2018-06-09T05:11:07.358Z,60.68
2018-06-09T05:13:36.155Z,60.85
2018-06-09T05:16:05.114Z,60.64
2018-06-09T05:18:33.790Z,60.70
2018-06-09T05:21:02.376Z,60.86
2018-06-09T05:23:31.055Z,60.76
2018-06-09T05:25:59.715Z,60.52
2018-06-09T05:28:28.432Z,60.72
2018-06-09T05:30:57.076Z,60.53
2018-06-09T05:33:25.853Z,60.88
2018-06-09T05:35:54.526Z,60.54
2018-06-09T05:38:23.211Z,60.17
2018-06-09T05:40:51.939Z,59.88
2018-06-09T05:43:20.554Z,60.01
2018-06-09T05:45:49.195Z,59.88
2018-06-09T05:48:17.923Z,59.48
2018-06-09T05:50:46.565Z,60.25
2018-06-09T05:53:15.203Z,60.23
2018-06-09T05:55:44.375Z,59.78
2018-06-09T05:58:13.032Z,59.47
2018-06-09T06:00:41.661Z,59.40
2018-06-09T06:03:10.344Z,59.04
2018-06-09T06:05:38.998Z,58.52
2018-06-09T06:08:07.671Z,58.11
2018-06-09T06:10:36.348Z,57.92
2018-06-09T06:13:05.182Z,57.82
2018-06-09T06:15:33.842Z,57.63
2018-06-09T06:18:02.616Z,57.37
2018-06-09T06:20:31.337Z,57.53
2018-06-09T06:23:00.095Z,56.96
2018-06-09T06:25:28.743Z,56.15
2018-06-09T06:27:58.103Z,57.15
2018-06-09T06:30:26.844Z,57.11
2018-06-09T06:32:55.478Z,56.68
2018-06-09T06:35:24.583Z,56.19
2018-06-09T06:37:53.248Z,56.02
2018-06-09T06:40:21.871Z,55.28
2018-06-09T06:42:50.556Z,54.70
2018-06-09T06:45:19.214Z,55.04
2018-06-09T06:47:47.910Z,55.00
2018-06-09T06:50:16.607Z,54.09
2018-06-09T06:52:45.247Z,53.91
2018-06-09T06:55:13.892Z,53.33
2018-06-09T06:57:42.516Z,52.34
2018-06-09T07:00:11.333Z,52.13
2018-06-09T07:02:40.016Z,52.02
2018-06-09T07:05:08.655Z,52.12
2018-06-09T07:07:37.286Z,51.16
2018-06-09T07:10:05.954Z,50.13
2018-06-09T07:12:34.647Z,48.93
2018-06-09T07:15:03.275Z,48.90
2018-06-09T07:17:31.935Z,48.65
2018-06-09T07:20:00.629Z,48.10
2018-06-09T07:22:29.312Z,46.68
2018-06-09T07:24:57.925Z,46.43
2018-06-09T07:27:27.166Z,45.60
2018-06-09T07:29:55.802Z,44.08
2018-06-09T07:32:24.431Z,44.00
2018-06-09T07:34:53.427Z,42.87
2018-06-09T07:37:22.106Z,42.41
2018-06-09T07:39:50.758Z,41.58
2018-06-09T07:42:19.419Z,41.44
2018-06-09T07:44:48.190Z,42.08
2018-06-09T07:47:16.812Z,43.70
2018-06-09T07:49:45.623Z,41.22
2018-06-09T07:52:14.592Z,41.03
2018-06-09T07:54:43.303Z,40.73
2018-06-09T07:57:11.972Z,40.28
2018-06-09T07:59:40.715Z,40.33
2018-06-09T08:02:09.415Z,39.09
2018-06-09T08:04:38.142Z,37.60
2018-06-09T08:07:06.784Z,38.19
2018-06-09T08:09:35.967Z,37.63
2018-06-09T08:12:04.696Z,36.71
2018-06-09T08:14:33.384Z,37.23
2018-06-09T08:17:02.067Z,36.09
2018-06-09T08:19:30.887Z,36.38
2018-06-09T08:21:59.550Z,35.36
2018-06-09T08:24:32.549Z,35.56
2018-06-09T08:27:01.195Z,35.16
2018-06-09T08:29:29.958Z,35.03
2018-06-09T08:31:58.667Z,35.12
2018-06-09T08:34:27.280Z,33.39
2018-06-09T08:36:55.918Z,33.05
2018-06-09T08:39:28.233Z,33.02
2018-06-09T08:41:57.116Z,33.62
2018-06-09T08:44:25.754Z,33.23
2018-06-09T08:46:54.406Z,33.10
2018-06-09T08:49:23.085Z,32.46
2018-06-09T08:51:51.687Z,31.20
2018-06-09T08:54:20.324Z,30.94
2018-06-09T08:56:49.020Z,29.51
2018-06-09T08:59:17.624Z,30.17
2018-06-09T09:01:46.287Z,30.61
2018-06-09T09:04:15.068Z,29.35
2018-06-09T09:06:43.856Z,29.42
2018-06-09T09:09:13.151Z,29.72
2018-06-09T09:11:41.916Z,29.21
2018-06-09T09:14:10.541Z,28.91
2018-06-09T09:16:39.195Z,29.63
2018-06-09T09:19:07.894Z,29.10
2018-06-09T09:21:36.525Z,29.02
2018-06-09T09:24:05.174Z,27.55
2018-06-09T09:26:33.866Z,28.23
2018-06-09T09:29:02.560Z,28.41
2018-06-09T09:31:31.226Z,28.14
2018-06-09T09:33:59.883Z,27.34
2018-06-09T09:36:28.514Z,26.69
2018-06-09T09:38:57.272Z,26.73
2018-06-09T09:41:26.013Z,24.91
2018-06-09T09:43:54.667Z,25.67
2018-06-09T09:46:23.360Z,26.79
2018-06-09T09:48:52.074Z,30.88
2018-06-09T09:51:20.998Z,33.81
2018-06-09T09:53:49.701Z,35.00
2018-06-09T09:56:18.336Z,34.30
2018-06-09T09:58:47.015Z,33.45
2018-06-09T10:01:15.677Z,33.88
2018-06-09T10:03:44.366Z,34.57
2018-06-09T10:06:13.059Z,34.72
2018-06-09T10:08:41.736Z,35.42
2018-06-09T10:11:10.368Z,36.51
2018-06-09T10:13:39.083Z,37.30
2018-06-09T10:16:07.720Z,36.88
2018-06-09T10:18:36.487Z,36.71
2018-06-09T10:21:05.199Z,37.72
2018-06-09T10:23:33.846Z,37.10
2018-06-09T10:26:02.602Z,36.32
2018-06-09T10:28:31.867Z,36.28
2018-06-09T10:31:00.507Z,33.92
2018-06-09T10:33:30.467Z,32.87
2018-06-09T10:35:59.917Z,32.26
2018-06-09T10:38:28.643Z,30.76
2018-06-09T10:40:57.314Z,30.08
2018-06-09T10:43:26.251Z,31.08
2018-06-09T10:45:54.998Z,30.67
2018-06-09T10:48:23.707Z,31.01
2018-06-09T10:50:52.883Z,31.49
2018-06-09T10:53:21.600Z,33.70
2018-06-09T10:55:50.286Z,35.10
2018-06-09T10:58:18.945Z,36.40
2018-06-09T11:00:47.662Z,35.88
2018-06-09T11:03:16.314Z,36.08
2018-06-09T11:05:44.995Z,34.87
2018-06-09T11:08:13.669Z,35.81
2018-06-09T11:10:42.577Z,34.46
2018-06-09T11:13:11.194Z,32.95
2018-06-09T11:15:39.854Z,33.75
2018-06-09T11:18:08.525Z,34.33
2018-06-09T11:20:37.192Z,34.71
2018-06-09T11:23:05.871Z,35.44
2018-06-09T11:25:34.595Z,34.41
2018-06-09T11:28:03.266Z,36.69
2018-06-09T11:30:31.971Z,35.29
2018-06-09T11:33:00.695Z,36.46
2018-06-09T11:35:29.399Z,35.30
2018-06-09T11:37:58.029Z,36.99
2018-06-09T11:40:26.777Z,32.85
2018-06-09T11:42:55.421Z,28.66
2018-06-09T11:45:24.172Z,28.96
2018-06-09T11:47:52.899Z,30.13
2018-06-09T11:50:21.639Z,28.83
2018-06-09T11:52:50.272Z,33.59
2018-06-09T11:55:18.926Z,34.38
2018-06-09T11:57:48.099Z,35.73
2018-06-09T12:00:16.740Z,34.99
2018-06-09T12:02:45.423Z,34.94
2018-06-09T12:05:14.084Z,34.77
2018-06-09T12:07:42.880Z,34.45
2018-06-09T12:10:11.582Z,33.59
2018-06-09T12:12:40.241Z,33.33
2018-06-09T12:15:08.878Z,35.12
2018-06-09T12:17:37.562Z,33.77
2018-06-09T12:20:06.310Z,35.02
2018-06-09T12:22:35.396Z,34.32
2018-06-09T12:25:04.075Z,34.64
2018-06-09T12:27:32.683Z,34.69
2018-06-09T12:30:01.387Z,34.90
2018-06-09T12:32:30.462Z,36.50
2018-06-09T12:34:59.070Z,40.17
2018-06-09T12:37:27.757Z,39.86
2018-06-09T12:39:56.382Z,40.74
2018-06-09T12:42:25.034Z,41.99
2018-06-09T12:44:53.687Z,41.71
2018-06-09T12:47:22.366Z,42.22
2018-06-09T12:49:51.050Z,42.22
2018-06-09T12:52:19.783Z,41.82
2018-06-09T12:54:48.994Z,42.85
2018-06-09T12:57:18.123Z,44.43
2018-06-09T12:59:47.468Z,44.47
2018-06-09T13:02:16.147Z,43.45
2018-06-09T13:04:44.820Z,43.58
2018-06-09T13:07:13.495Z,43.53
2018-06-09T13:09:42.186Z,42.40
2018-06-09T13:12:10.866Z,43.51
2018-06-09T13:14:39.504Z,42.40
2018-06-09T13:17:08.162Z,42.61
2018-06-09T13:19:36.842Z,44.50
2018-06-09T13:22:05.653Z,42.66
2018-06-09T13:24:34.283Z,43.04
2018-06-09T13:27:02.964Z,44.59
2018-06-09T13:29:31.673Z,42.48
2018-06-09T13:32:00.442Z,41.94
2018-06-09T13:34:29.126Z,40.63
2018-06-09T13:36:57.825Z,40.80
2018-06-09T13:39:26.512Z,41.28
2018-06-09T13:41:55.185Z,41.07
2018-06-09T13:44:23.797Z,43.19
2018-06-09T13:46:52.635Z,42.18
2018-06-09T13:49:21.251Z,40.34
2018-06-09T13:51:49.892Z,42.29
2018-06-09T13:54:18.547Z,42.63
2018-06-09T13:56:47.226Z,40.81
2018-06-09T13:59:15.878Z,40.78
2018-06-09T14:01:45.194Z,40.67
2018-06-09T14:04:14.206Z,39.91
2018-06-09T14:06:44.287Z,40.89
2018-06-09T14:09:12.969Z,40.42
2018-06-09T14:11:41.617Z,40.62
2018-06-09T14:14:10.280Z,39.89
2018-06-09T14:16:38.963Z,39.80
2018-06-09T14:19:07.680Z,41.53
2018-06-09T14:21:36.339Z,39.90
2018-06-09T14:24:05.023Z,39.57
2018-06-09T14:26:38.531Z,40.23
2018-06-09T14:29:07.901Z,43.11
2018-06-09T14:31:36.647Z,41.52
2018-06-09T14:34:05.298Z,39.68
2018-06-09T14:36:33.979Z,39.04
2018-06-09T14:39:02.621Z,38.73
2018-06-09T14:41:31.250Z,39.07
2018-06-09T14:43:59.918Z,38.34
2018-06-09T14:46:28.518Z,38.70
2018-06-09T14:48:57.189Z,40.34
2018-06-09T14:51:25.791Z,41.44
2018-06-09T14:53:54.469Z,41.95
2018-06-09T14:56:23.348Z,42.59
2018-06-09T14:58:54.207Z,42.28
2018-06-09T15:01:23.412Z,42.60
2018-06-09T15:03:52.098Z,42.76
2018-06-09T15:06:20.750Z,42.95
2018-06-09T15:08:49.426Z,42.88
2018-06-09T15:11:18.216Z,44.06
2018-06-09T15:13:46.807Z,44.46
2018-06-09T15:16:15.488Z,43.50
2018-06-09T15:18:44.187Z,43.28
2018-06-09T15:21:12.833Z,45.08
2018-06-09T15:23:41.918Z,47.37
2018-06-09T15:26:10.623Z,47.09
2018-06-09T15:28:39.288Z,47.45
2018-06-09T15:31:07.940Z,47.32
2018-06-09T15:33:36.739Z,48.60
2018-06-09T15:36:05.334Z,47.88
2018-06-09T15:38:34.015Z,49.15
2018-06-09T15:41:02.696Z,48.29
2018-06-09T15:43:31.391Z,47.87
2018-06-09T15:46:00.031Z,48.88
2018-06-09T15:48:28.766Z,48.68
2018-06-09T15:50:57.446Z,48.67
2018-06-09T15:53:26.080Z,48.48
2018-06-09T15:55:54.798Z,48.78
2018-06-09T15:58:23.446Z,48.87
2018-06-09T16:00:52.119Z,48.94
2018-06-09T16:03:20.771Z,52.19
2018-06-09T16:05:49.438Z,48.62
2018-06-09T16:08:18.088Z,49.69
2018-06-09T16:10:46.739Z,51.47
2018-06-09T16:13:15.378Z,50.05
2018-06-09T16:15:44.045Z,51.74
2018-06-09T16:18:12.713Z,51.62
2018-06-09T16:20:41.415Z,52.60
2018-06-09T16:23:10.076Z,51.98
2018-06-09T16:25:38.714Z,51.69
2018-06-09T16:28:07.319Z,51.99
2018-06-09T16:30:35.922Z,51.09
2018-06-09T16:33:04.543Z,54.31
2018-06-09T16:35:33.187Z,52.17
2018-06-09T16:38:01.850Z,51.06
2018-06-09T16:40:30.550Z,53.28
2018-06-09T16:42:59.238Z,52.29
2018-06-09T16:45:27.888Z,57.32
2018-06-09T16:47:56.596Z,52.55
2018-06-09T16:50:25.263Z,52.99
2018-06-09T16:52:53.996Z,54.32
2018-06-09T16:55:22.696Z,43.96
2018-06-09T16:57:51.309Z,39.28
2018-06-09T17:00:21.100Z,39.41
2018-06-09T17:02:49.846Z,42.80
2018-06-09T17:05:18.818Z,43.09
2018-06-09T17:07:47.596Z,41.80
2018-06-09T17:10:16.255Z,42.09
2018-06-09T17:12:45.689Z,42.47
2018-06-09T17:15:14.507Z,44.14
2018-06-09T17:17:43.702Z,41.20
2018-06-09T17:20:12.408Z,40.99
2018-06-09T17:22:42.241Z,39.22
2018-06-09T17:25:11.142Z,41.44
2018-06-09T17:27:39.881Z,39.21
2018-06-09T17:30:16.114Z,44.24
2018-06-09T17:35:45.075Z,42.98
2018-06-09T17:38:13.786Z,43.30
2018-06-09T17:40:42.820Z,44.98
2018-06-09T17:43:11.600Z,47.88
2018-06-09T17:45:40.258Z,49.45
2018-06-09T17:48:08.900Z,48.32
2018-06-09T17:50:37.518Z,48.45
2018-06-09T17:53:06.344Z,45.39
2018-06-09T17:55:36.099Z,45.41
2018-06-09T17:58:04.835Z,43.51
2018-06-09T18:00:33.480Z,42.48
2018-06-09T18:03:08.322Z,46.27
2018-06-09T18:05:36.990Z,44.29
2018-06-09T18:08:06.134Z,44.60
2018-06-09T18:10:34.942Z,46.19
2018-06-09T18:13:04.362Z,48.16
2018-06-09T18:15:33.036Z,48.09
2018-06-09T18:18:01.669Z,50.18
2018-06-09T18:20:30.694Z,51.17
2018-06-09T18:23:00.627Z,51.49
2018-06-09T18:25:29.312Z,49.60
2018-06-09T18:27:57.997Z,50.93
2018-06-09T18:30:26.722Z,51.06
2018-06-09T18:32:55.453Z,53.64
2018-06-09T18:35:24.172Z,54.25
2018-06-09T18:37:52.870Z,55.50
2018-06-09T18:40:21.515Z,54.07
2018-06-09T18:42:50.171Z,53.12
2018-06-09T18:45:18.865Z,53.76
2018-06-09T18:47:48.187Z,53.56
2018-06-09T18:50:16.845Z,54.46
2018-06-09T18:52:45.575Z,54.32
2018-06-09T18:55:14.256Z,53.02
2018-06-09T18:57:42.929Z,54.43
2018-06-09T19:00:11.780Z,53.13
2018-06-09T19:02:40.443Z,53.43
2018-06-09T19:05:09.126Z,54.04
2018-06-09T19:07:37.833Z,52.88
2018-06-09T19:10:06.533Z,54.09
2018-06-09T19:12:35.184Z,56.56
2018-06-09T19:15:03.924Z,55.10
2018-06-09T19:17:32.584Z,55.91
2018-06-09T19:20:01.311Z,54.40
2018-06-09T19:22:29.975Z,55.50
2018-06-09T19:24:58.668Z,53.14
2018-06-09T19:27:27.469Z,54.15
2018-06-09T19:29:56.050Z,54.04
2018-06-09T19:32:24.876Z,55.08
2018-06-09T19:34:53.592Z,54.47
2018-06-09T19:37:22.372Z,55.03
2018-06-09T19:39:51.118Z,54.35
2018-06-09T19:42:20.674Z,53.18
2018-06-09T19:44:49.352Z,54.31
2018-06-09T19:47:18.034Z,54.44
2018-06-09T19:49:46.695Z,55.41
2018-06-09T19:52:15.339Z,55.31
2018-06-09T19:54:44.510Z,54.96
2018-06-09T19:57:13.189Z,55.16
2018-06-09T19:59:42.263Z,55.00
2018-06-09T20:02:11.010Z,54.52
2018-06-09T20:04:39.650Z,54.63
2018-06-09T20:07:08.396Z,54.83
2018-06-09T20:09:37.027Z,55.05
2018-06-09T20:12:05.706Z,55.83
2018-06-09T20:14:34.746Z,55.17
2018-06-09T20:17:04.310Z,55.15
2018-06-09T20:19:33.015Z,54.21
2018-06-09T20:22:01.720Z,53.95
2018-06-09T20:24:30.374Z,55.68
2018-06-09T20:26:58.989Z,54.56
2018-06-09T20:29:27.698Z,54.96
2018-06-09T20:31:56.362Z,55.49
2018-06-09T20:34:25.044Z,55.09
2018-06-09T20:36:54.690Z,55.36
2018-06-09T20:39:23.448Z,54.83
2018-06-09T20:41:53.191Z,55.45
2018-06-09T20:44:22.023Z,55.37
2018-06-09T20:46:50.835Z,56.61
2018-06-09T20:49:19.531Z,56.33
2018-06-09T20:51:48.264Z,56.31
2018-06-09T20:54:16.986Z,56.23
2018-06-09T20:56:45.712Z,56.16
2018-06-09T20:59:14.372Z,56.34
2018-06-09T21:01:43.274Z,56.17
2018-06-09T21:04:12.048Z,56.18
2018-06-09T21:06:40.770Z,56.06
2018-06-09T21:09:09.430Z,56.95
2018-06-09T21:11:38.286Z,56.24
2018-06-09T21:14:07.036Z,56.26
2018-06-09T21:16:35.686Z,56.47
2018-06-09T21:19:04.602Z,56.80
2018-06-09T21:21:33.269Z,56.87
2018-06-09T21:24:03.001Z,56.33
2018-06-09T21:26:37.122Z,57.13
2018-06-09T21:29:11.435Z,57.43
2018-06-09T21:31:44.671Z,56.97
2018-06-09T21:34:30.351Z,57.43
2018-06-09T21:37:15.495Z,57.42
2018-06-09T21:39:49.842Z,56.88
2018-06-09T21:42:24.118Z,57.81
2018-06-09T21:44:58.110Z,57.37
2018-06-09T21:47:27.296Z,57.85
2018-06-09T21:49:56.544Z,58.15
2018-06-09T21:52:26.313Z,58.93
2018-06-09T21:54:55.146Z,58.97
2018-06-09T21:57:23.807Z,58.95
2018-06-09T21:59:52.978Z,58.87
2018-06-09T22:02:21.855Z,58.77
2018-06-09T22:04:50.710Z,58.76
2018-06-09T22:07:19.351Z,59.33
2018-06-09T22:09:48.011Z,59.49
2018-06-09T22:12:17.958Z,59.51
2018-06-09T22:14:46.694Z,58.74
2018-06-09T22:17:15.365Z,58.69
2018-06-09T22:19:44.248Z,58.98
2018-06-09T22:22:13.498Z,58.61
2018-06-09T22:24:42.394Z,59.01
2018-06-09T22:27:11.238Z,58.87
2018-06-09T22:29:40.056Z,58.56
2018-06-09T22:32:08.837Z,58.92
2018-06-09T22:34:37.873Z,58.75
2018-06-09T22:37:06.475Z,58.53
2018-06-09T22:39:35.227Z,58.96
2018-06-09T22:42:04.030Z,58.48
2018-06-09T22:44:32.716Z,58.89
2018-06-09T22:47:01.420Z,58.24
2018-06-09T22:49:30.057Z,58.82
2018-06-09T22:51:58.742Z,59.07
2018-06-09T22:54:28.156Z,59.35
2018-06-09T22:56:56.842Z,58.48
2018-06-09T22:59:25.530Z,59.37
2018-06-09T23:04:29.141Z,60.76
2018-06-09T23:06:57.770Z,61.35
2018-06-09T23:09:26.459Z,61.09
2018-06-09T23:11:55.091Z,60.81
2018-06-09T23:14:23.760Z,61.45
2018-06-09T23:16:52.402Z,61.94
2018-06-09T23:19:21.047Z,62.23
2018-06-09T23:21:49.686Z,62.49
2018-06-09T23:24:18.307Z,62.87
2018-06-09T23:26:47.448Z,62.94
2018-06-09T23:29:16.246Z,62.01
2018-06-09T23:31:45.048Z,61.97
2018-06-09T23:34:13.696Z,62.12
2018-06-09T23:36:42.333Z,62.26
2018-06-09T23:39:10.989Z,61.99
2018-06-09T23:41:39.632Z,62.61
2018-06-09T23:44:09.179Z,63.17
2018-06-09T23:46:37.884Z,62.76
2018-06-09T23:49:06.518Z,62.26
2018-06-09T23:51:35.234Z,62.19
2018-06-09T23:54:04.306Z,62.97
2018-06-09T23:56:33.020Z,63.45
2018-06-09T23:59:01.627Z,64.77
